Latest Coastal Weather Observations for Proserpine

IDQ60701

Issued at 11:42 pm EST Thursday 2 February 2023 (issued every 10 minutes, with the page automatically refreshed every 10 minutes)

About coastal observations | Map of coastal stations | Coastal observations for QLD | Marine services | Other Formats
Station Details ID: 033247 Name: PROSERPINE AIRPORT Lat: -20.49 Lon: 148.56 Height: 19.7 m
Data from the previous 72 hours. | See also: Recent months at Proserpine
Date/Time
EST
Wind Sea
Height
m
Swell Vis
km
Cloud Weather Temp
°C
Press
MSL
hPa
Rain since
9am
mm
Dir  Spd
kts
Gust
kts
Height
m
Period
s
Dir
02/11:30pm NNW 11 16 - - - - 10 Clear - 27.9 1001.0 0.0
02/11:00pm NNW 12 16 - - - - 10 - - 28.0 1001.4 0.0
02/10:30pm NNW 10 14 - - - - 10 - - 27.9 1001.0 0.0
02/10:00pm NNW 10 15 - - - - 10 - - 28.0 1000.9 0.0
02/09:30pm NNW 10 13 - - - - 10 - - 27.9 1000.5 0.0
02/09:00pm N 9 13 - - - - 10 - - 28.0 1000.1 0.0
02/08:30pm NNW 12 16 - - - - 10 - - 28.2 999.6 0.0
02/08:00pm NNW 9 12 - - - - 10 - - 28.1 999.0 0.0
02/07:30pm N 9 12 - - - - 10 - - 28.4 998.6 0.0
02/07:00pm N 9 13 - - - - 10 - - 28.7 998.0 0.0
02/06:30pm N 11 16 - - - - 10 - - 29.5 997.4 0.0
02/06:00pm N 11 15 - - - - 10 - - 30.7 997.1 0.0
02/05:30pm N 11 16 - - - - 10 - - 31.9 996.7 0.0
02/05:00pm N 10 14 - - - - 10 - - 33.6 996.5 0.0
02/04:30pm WNW 8 11 - - - - 10 - - 34.9 996.5 0.0
02/04:00pm W 12 17 - - - - 10 Partly cloudy - 36.3 996.6 0.0
02/03:30pm W 9 14 - - - - 10 Partly cloudy - 35.1 996.8 0.0
02/03:00pm WNW 9 16 - - - - 10 Mostly clear - 35.5 997.3 0.0
02/02:30pm WSW 9 15 - - - - 10 - - 36.3 997.6 0.0
02/02:00pm W 9 13 - - - - 10 Partly cloudy - 36.2 998.1 0.0
02/01:30pm WNW 9 12 - - - - 10 - - 35.8 998.5 0.0
02/01:00pm NNE 7 13 - - - - 10 Partly cloudy - 33.9 998.6 0.0
02/12:30pm WNW 8 13 - - - - 10 Partly cloudy - 34.6 999.3 0.0
02/12:00pm NNW 7 11 - - - - 10 Mostly clear - 33.9 999.7 0.0
02/11:30am WNW 7 14 - - - - 10 - - 33.9 1000.1 0.0
02/11:00am W 6 12 - - - - 10 Partly cloudy - 33.2 1000.5 0.0
02/10:30am WNW 6 10 - - - - 10 Partly cloudy - 32.4 1000.9 0.0
02/10:06am N 4 6 - - - - 10 Partly cloudy - 31.5 1001.2 0.0
02/10:00am NNW 3 6 - - - - 7 Partly cloudy - 31.3 1001.3 0.0
02/09:56am WNW 5 9 - - - - 5 Partly cloudy - 31.2 1001.3 0.0
02/09:30am WNW 4 6 - - - - 10 - - 31.0 1001.5 0.0
02/09:00am NNW 8 10 - - - - 10 Mostly clear - 29.8 1001.7 38.4
02/08:30am N 9 11 - - - - 10 Partly cloudy - 28.5 1001.6 38.4
02/08:00am NNW 7 11 - - - - 10 - - 27.7 1001.6 38.4
02/07:30am NNW 7 9 - - - - 10 - - 26.8 1001.5 38.4
02/07:00am NNW 7 10 - - - - 10 - - 25.8 1001.5 38.4
02/06:30am NNW 8 10 - - - - 10 Partly cloudy - 24.7 1001.0 38.4
02/06:00am N 7 9 - - - - 10 Mostly clear - 24.3 1000.5 38.4
02/05:30am N 5 7 - - - - 10 Partly cloudy - 24.2 1000.7 38.4
02/05:00am N 6 8 - - - - 10 - - 24.1 1000.7 38.4
02/04:30am NNE 5 7 - - - - 10 - - 24.1 1000.7 38.4
02/04:00am N 7 9 - - - - 10 Partly cloudy - 24.3 1000.6 38.4
02/03:30am NNW 9 11 - - - - 10 - - 24.4 1000.4 38.4
02/03:00am N 8 11 - - - - 10 Mostly cloudy - 24.5 1000.6 38.4
02/02:30am N 8 11 - - - - 10 - - 24.3 1000.5 38.4
02/02:00am N 8 12 - - - - 10 - - 24.6 1000.8 38.4
02/01:30am N 7 10 - - - - 10 - - 24.7 1001.1 38.4
02/01:00am NNW 9 12 - - - - 10 - - 24.8 1001.4 38.4
02/12:30am N 8 11 - - - - 10 - - 25.0 1001.9 38.4
02/12:00am NNW 8 11 - - - - 10 - - 24.9 1002.0 38.4
 
Date/Time
EST
Wind Sea
Height
m
Swell Vis
km
Cloud Weather Temp
°C
Press
MSL
hPa
Rain since
9am
mm
Dir  Spd
kts
Gust
kts
Height
m
Period
s
Dir
01/11:30pm NNW 6 8 - - - - 10 - - 25.0 1002.1 38.4
01/11:00pm NNW 6 8 - - - - 10 - - 25.0 1002.1 38.4
01/10:30pm NNW 4 5 - - - - 10 - - 24.9 1002.1 38.4
01/10:00pm N 3 5 - - - - 10 - - 24.7 1002.4 38.4
01/09:30pm N 4 5 - - - - 10 - - 24.6 1002.5 38.4
01/09:00pm N 4 6 - - - - 10 Cloudy Thunderstorm 24.2 1002.5 38.2
01/08:30pm N 6 8 - - - - 10 - - 24.1 1002.6 38.2
01/08:00pm N 5 8 - - - - 10 Partly cloudy - 24.1 1002.4 38.2
01/07:42pm NNE 7 10 - - - - 10 Partly cloudy - 24.6 1002.6 38.0
01/07:30pm N 9 13 - - - - 10 - - 24.7 1002.6 38.0
01/07:17pm N 9 12 - - - - 10 Partly cloudy - 24.9 1001.8 38.0
01/07:12pm N 10 16 - - - - 10 Partly cloudy - 24.8 1001.5 38.0
01/07:04pm N 16 26 - - - - 2 Partly cloudy - 24.7 1001.4 37.8
01/07:00pm N 18 26 - - - - 0.7 Partly cloudy - 24.6 1001.4 37.8
01/06:47pm NNW 15 19 - - - - 0.9 Partly cloudy - 25.3 1002.1 26.4
01/06:36pm NW 15 25 - - - - 0.9 Partly cloudy - 26.5 1002.0 14.8
01/06:33pm NNW 14 25 - - - - 4 Partly cloudy - 26.5 1001.9 8.8
01/06:32pm NNW 13 25 - - - - 7 Partly cloudy - 26.7 1001.6 7.0
01/06:30pm N 11 24 - - - - 10 Partly cloudy - 27.1 1001.3 6.0
01/06:24pm N 11 16 - - - - 10 Partly cloudy - 27.7 1000.7 5.6
01/06:19pm N 11 16 - - - - - Partly cloudy - 27.6 1000.5 5.6
01/06:09pm N 10 15 - - - - 10 Partly cloudy - 27.6 1000.2 5.6
01/06:00pm N 10 15 - - - - 10 Cloudy Thunderstorm 27.7 1000.0 5.6
01/05:59pm N 10 15 - - - - 10 Partly cloudy - 27.7 1000.0 5.6
01/05:55pm N 11 13 - - - - 10 Partly cloudy - 27.7 1000.2 5.6
01/05:40pm N 10 15 - - - - 10 Partly cloudy - 27.5 1000.0 5.4
01/05:30pm N 11 17 - - - - 5 Partly cloudy - 27.6 999.9 5.0
01/05:18pm NW 12 18 - - - - 5 Partly cloudy - 28.1 1000.2 2.4
01/05:00pm NNW 11 16 - - - - 10 Partly cloudy - 29.7 999.5 0.8
01/04:55pm NNW 13 19 - - - - 10 Partly cloudy - 29.8 999.3 0.8
01/04:30pm NNW 14 18 - - - - 10 Partly cloudy - 31.2 998.9 0.8
01/04:00pm N 11 15 - - - - 10 - - 31.8 999.2 0.8
01/03:30pm NNW 10 13 - - - - 10 Partly cloudy - 32.0 999.6 0.8
01/03:00pm NW 6 9 - - - - 10 Mostly cloudy Rain 31.9 1000.0 0.8
01/02:30pm W 7 9 - - - - 10 Partly cloudy - 31.0 1000.4 0.8
01/02:00pm SW 7 9 - - - - 10 Partly cloudy - 31.2 1000.6 0.8
01/01:30pm WNW 9 13 - - - - 10 Partly cloudy - 32.5 1000.9 0.8
01/01:00pm WNW 9 15 - - - - 10 Partly cloudy - 33.0 1001.2 0.8
01/12:30pm WNW 9 13 - - - - 10 - - 32.9 1001.6 0.8
01/12:00pm NNW 9 15 - - - - 10 Partly cloudy - 32.2 1002.0 0.8
01/11:30am NNW 10 15 - - - - 10 Partly cloudy - 31.5 1002.5 0.8
01/11:00am NNW 11 15 - - - - 10 Partly cloudy - 31.2 1003.0 0.8
01/10:30am NNW 11 15 - - - - 10 Partly cloudy - 29.8 1003.5 0.0
01/10:00am NNW 11 17 - - - - 10 Partly cloudy - 29.0 1004.1 0.0
01/09:40am NNW 10 15 - - - - 10 Partly cloudy - 28.8 1004.2 0.0
01/09:30am N 9 14 - - - - 10 Partly cloudy - 28.7 1004.3 0.0
01/09:00am NNW 8 11 - - - - 10 Mostly cloudy - 28.2 1004.5 0.0
01/08:30am NNW 9 14 - - - - 10 Partly cloudy - 27.6 1004.6 0.0
01/08:00am NNW 10 15 - - - - 10 Partly cloudy - 27.3 1004.3 0.0
01/07:30am NNW 7 9 - - - - 10 Partly cloudy - 26.9 1003.9 0.0
01/07:00am NNW 8 11 - - - - 10 - - 26.1 1003.7 0.0
01/06:30am N 8 10 - - - - 10 - - 25.5 1003.5 0.0
01/06:00am NNW 7 9 - - - - 10 - - 25.2 1003.2 0.0
01/05:30am N 4 5 - - - - 10 Partly cloudy - 25.1 1003.0 0.0
01/05:00am N 4 5 - - - - 10 Partly cloudy - 25.3 1002.9 0.0
01/04:30am N 6 9 - - - - 10 Partly cloudy - 25.4 1002.9 0.0
01/04:00am N 5 8 - - - - 10 Partly cloudy - 25.9 1002.8 0.0
01/03:30am NNW 8 11 - - - - 10 Partly cloudy - 26.5 1003.0 0.0
01/03:00am NW 7 9 - - - - 10 Cloudy - 27.0 1003.0 0.0
01/02:30am NW 5 6 - - - - 10 Partly cloudy - 26.2 1003.1 0.0
01/02:00am NNW 5 6 - - - - 10 Partly cloudy - 25.7 1003.2 0.0
01/01:30am NNW 6 8 - - - - 10 Partly cloudy - 25.8 1003.7 0.0
01/01:00am NNW 7 9 - - - - 10 - - 26.0 1004.4 0.0
01/12:30am N 6 7 - - - - 10 Partly cloudy - 26.0 1004.9 0.0
01/12:00am N 5 7 - - - - 10 Cloudy - 26.1 1005.3 0.0
 
Date/Time
EST
Wind Sea
Height
m
Swell Vis
km
Cloud Weather Temp
°C
Press
MSL
hPa
Rain since
9am
mm
Dir  Spd
kts
Gust
kts
Height
m
Period
s
Dir
31/11:30pm NNW 3 4 - - - - 10 Partly cloudy - 26.0 1005.8 0.0
31/11:00pm NNW 3 5 - - - - 10 Partly cloudy - 26.0 1006.0 0.0
31/10:30pm NNW 6 7 - - - - 10 Partly cloudy - 26.1 1005.9 0.0
31/10:00pm NNW 6 10 - - - - 10 Partly cloudy - 26.2 1006.0 0.0
31/09:30pm NNW 6 8 - - - - 10 Partly cloudy - 26.1 1006.1 0.0
31/09:00pm NNW 5 7 - - - - 10 - - 26.2 1005.9 0.0
31/08:30pm NNW 6 8 - - - - 10 - - 26.4 1005.5 0.0
31/08:00pm NNW 5 7 - - - - 10 Partly cloudy - 26.6 1005.1 0.0
31/07:30pm NNW 7 10 - - - - 10 - - 27.0 1004.6 0.0
31/07:00pm NNW 10 14 - - - - 10 - - 27.5 1004.3 0.0
31/06:30pm N 9 12 - - - - 10 Partly cloudy - 27.9 1004.2 0.0
31/06:00pm N 10 15 - - - - 10 Mostly clear - 28.7 1003.6 0.0
31/05:30pm N 11 15 - - - - 10 Partly cloudy - 29.4 1003.5 0.0
31/05:00pm N 12 19 - - - - 10 Partly cloudy - 29.7 1003.3 0.0
31/04:30pm N 12 17 - - - - 10 Partly cloudy - 30.2 1002.9 0.0
31/04:00pm NNW 13 18 - - - - 10 Partly cloudy - 30.6 1003.0 0.0
31/03:30pm NNW 12 17 - - - - 10 Partly cloudy - 31.2 1003.0 0.0
31/03:00pm NNW 11 15 - - - - 10 - - 30.8 1003.5 0.0
31/02:30pm N 11 15 - - - - 10 Partly cloudy - 30.9 1003.8 0.0
31/02:00pm NNW 9 13 - - - - 10 Partly cloudy - 31.2 1004.3 0.0
31/01:30pm N 9 12 - - - - 10 Partly cloudy - 30.6 1004.7 0.0
31/01:00pm N 10 16 - - - - 10 Partly cloudy - 30.6 1005.0 0.0
31/12:30pm N 11 15 - - - - 10 Partly cloudy - 31.0 1005.6 0.0
31/12:00pm NNW 11 16 - - - - 10 Cloudy - 30.0 1006.0 0.0
31/11:30am NNW 9 12 - - - - 10 Partly cloudy - 30.3 1006.4 0.0
31/11:00am NNW 9 12 - - - - 10 Partly cloudy - 29.0 1006.7 0.0
31/10:30am NNW 9 13 - - - - 10 Partly cloudy - 28.9 1007.0 0.0
31/10:00am NNW 8 11 - - - - 10 Partly cloudy - 28.1 1007.2 0.0
31/09:30am NW 3 5 - - - - 10 - - 28.0 1007.4 0.0
31/09:00am WNW 5 6 - - - - 10 - - 26.9 1007.8 0.0
31/08:30am WSW 2 4 - - - - 10 - - 26.3 1007.9 0.0
31/08:00am NNW 1 4 - - - - 10 - - 24.9 1008.1 0.0
31/07:30am WNW 3 4 - - - - 10 - - 24.2 1008.1 0.0
31/07:00am CALM 0 0 - - - - 10 - - 23.7 1008.0 0.0
31/06:30am CALM 0 1 - - - - 10 - - 23.3 1008.0 0.0
31/06:00am CALM 0 0 - - - - 10 - - 23.0 1007.7 0.0
31/05:30am S 4 5 - - - - 10 - - 22.9 1007.6 0.0
31/05:00am CALM 0 0 - - - - 10 - - 22.8 1007.8 0.0
31/04:30am SW 4 5 - - - - 10 - - 22.8 1007.5 0.0
31/04:00am SW 6 7 - - - - 10 - - 22.9 1007.3 0.0
31/03:30am SW 3 4 - - - - 10 - - 22.8 1007.3 0.0
31/03:00am SW 3 4 - - - - 10 - - 22.9 1007.7 0.0
31/02:30am SW 3 3 - - - - 10 Partly cloudy - 23.1 1008.0 0.0
31/02:00am SW 3 3 - - - - 10 - - 23.2 1008.2 0.0
31/01:30am SSW 2 4 - - - - 10 Partly cloudy - 23.4 1008.6 0.0
31/01:00am SW 3 4 - - - - 10 Partly cloudy - 23.6 1008.8 0.0
31/12:30am SW 3 4 - - - - 10 - - 23.6 1009.3 0.0
31/12:00am WNW 2 4 - - - - 10 - - 23.3 1009.5 0.0

Other formats

Comma delimited format used in spreadsheet applications
http://www.bom.gov.au/fwo/IDQ60701/IDQ60701.94365.axf

JavaScript Object Notation format (JSON) in row-major order
http://www.bom.gov.au/fwo/IDQ60701/IDQ60701.94365.json

Data quality

Most of these data are generated automatically and are frequently updated. Quality checks on data are not normally performed. It is possible for incorrect values to appear. Refer to information at About Latest Weather Observations and please check the disclaimer before using these data.